Terminal Aerodrome Forecast
Issued by NWS

Home | Current Version | Previous Version | Text Only | Print | Product List | Glossary On
Versions: 1 2 3 4 5 6 7 8 9 10 11 12 13 14 15 16 17
000
FTUS44 KSJT 230500
TAFSOA
TAF
KSOA 230527Z 2306/2406 25005KT P6SM FEW200
     FM231600 27015G24KT P6SM SKC
     FM232100 30014G23KT P6SM SKC
     FM240000 34008KT P6SM SKC=

USA.gov is the U.S. government's official web portal to all federal, state and local government web resources and services.